Time;durP1;ratioP1;P1;durP2;ratioP2;P2;SDS_P1;SDS_P2;PMS_P1;PMS_P2;Temp;Humidity;BMP_temperature;BMP_pressure;BME280_temperature;BME280_humidity;BME280_pressure;Samples;Min_cycle;Max_cycle;Signal;HPM_P1;HPM_P2
2024/03/29 01:43:40;;;;;;;1.03;0.80;;;7.10;99.90;;;-141.84;62.23;18692.13;5094324;28;20200;-70
2024/03/29 01:46:08;;;;;;;2.33;1.03;;;7.00;99.90;;;-141.84;61.98;18724.66;5109835;28;20702;-70
2024/03/29 01:48:35;;;;;;;1.73;0.90;;;6.90;99.90;;;-141.84;62.51;18736.84;5113532;27;20245;-68
2024/03/29 01:51:03;;;;;;;2.70;0.93;;;6.90;99.90;;;-141.84;62.52;18702.28;5110478;28;20227;-68
2024/03/29 01:53:32;;;;;;;1.43;0.87;;;6.80;99.90;;;-141.84;62.61;18710.44;5116364;27;20234;-67
2024/03/29 01:56:02;;;;;;;1.70;0.90;;;6.80;99.90;;;-141.84;61.99;18718.56;5114335;27;20194;-68
2024/03/29 01:58:30;;;;;;;3.50;0.90;;;6.80;99.90;;;-141.84;62.00;18724.66;5113406;28;20195;-68
2024/03/29 02:01:01;;;;;;;1.50;0.97;;;6.90;99.90;;;-141.84;61.57;18738.88;5112878;27;20215;-67
2024/03/29 02:03:28;;;;;;;1.10;0.67;;;6.90;99.90;;;-141.84;62.17;18742.94;5109854;28;20223;-67
2024/03/29 02:05:57;;;;;;;1.93;0.90;;;6.80;99.90;;;-141.84;62.30;18714.50;5109793;28;20739;-69
2024/03/29 02:08:24;;;;;;;2.60;1.00;;;6.80;99.90;;;-141.84;62.42;18744.97;5111027;27;20647;-69
2024/03/29 02:10:52;;;;;;;1.80;0.83;;;6.80;99.90;;;-141.84;61.71;18761.22;5113759;27;20214;-67
2024/03/29 02:13:21;;;;;;;2.27;1.07;;;6.80;99.90;;;-141.84;62.60;18710.44;5113068;27;20230;-67
2024/03/29 02:15:48;;;;;;;2.53;0.97;;;6.80;99.90;;;-141.84;63.10;18696.19;5112786;27;20214;-67
2024/03/29 02:18:16;;;;;;;2.20;0.83;;;6.70;99.90;;;-141.84;62.91;18732.78;5109415;28;20210;-68
2024/03/29 02:20:43;;;;;;;1.13;0.70;;;6.80;99.90;;;-141.84;62.33;18688.06;5109624;28;20222;-67
2024/03/29 02:23:14;;;;;;;3.00;0.90;;;6.80;99.90;;;-141.84;61.70;18730.75;5113894;27;20203;-67
2024/03/29 02:25:43;;;;;;;2.90;1.13;;;6.80;99.90;;;-141.84;62.84;18708.41;5113174;27;20199;-67
2024/03/29 02:28:11;;;;;;;1.90;1.07;;;6.80;99.90;;;-141.84;60.90;18716.53;5112516;27;20333;-67
2024/03/29 02:30:38;;;;;;;1.27;0.80;;;6.90;99.90;;;-141.84;58.89;18779.50;5103816;27;20724;-66
2024/03/29 02:33:06;;;;;;;2.50;0.80;;;7.10;99.90;;;-141.84;59.38;18793.72;5112561;27;20784;-67
2024/03/29 02:35:33;;;;;;;1.00;0.70;;;7.20;99.90;;;-141.84;59.00;18757.16;5112851;27;20222;-65
2024/03/29 02:38:00;;;;;;;1.80;0.83;;;7.30;99.90;;;-141.84;59.77;18763.25;5104685;27;21123;-65
2024/03/29 02:40:27;;;;;;;2.27;0.90;;;7.20;99.90;;;-141.84;59.78;18740.91;5112807;27;20215;-66
2024/03/29 02:42:56;;;;;;;1.53;1.00;;;7.30;99.90;;;-141.84;59.09;18759.19;5112229;27;20226;-65
2024/03/29 02:45:23;;;;;;;1.53;1.00;;;7.30;99.90;;;-141.84;59.65;18755.13;5104069;27;20210;-65
2024/03/29 02:47:51;;;;;;;1.87;0.93;;;7.20;99.90;;;-141.84;58.95;18749.03;5112524;27;20275;-65
2024/03/29 02:50:17;;;;;;;2.13;0.90;;;7.20;99.90;;;-141.84;58.15;18787.63;5112478;27;20194;-66
2024/03/29 02:52:45;;;;;;;1.47;0.83;;;7.40;99.90;;;-141.84;58.06;18765.28;5112166;27;20207;-64
2024/03/29 02:55:11;;;;;;;1.93;1.17;;;7.40;99.90;;;-141.84;58.44;18787.63;5107237;27;20271;-64
2024/03/29 02:57:38;;;;;;;1.90;1.00;;;7.40;99.90;;;-141.84;57.83;18757.16;5112241;27;20218;-65
2024/03/29 03:00:09;;;;;;;2.07;0.83;;;7.50;99.90;;;-141.84;58.42;18763.25;5111708;27;20778;-63
2024/03/29 03:02:39;;;;;;;5.27;0.93;;;7.40;99.90;;;-141.84;58.30;18736.84;5112246;27;20222;-65
2024/03/29 03:05:07;;;;;;;0.90;0.80;;;7.40;99.90;;;-141.84;58.09;18749.03;5112026;27;20187;-65
2024/03/29 03:13:06;;;;;;;2.03;0.90;;;7.50;99.90;;;-141.84;57.50;18814.03;5111785;27;20226;-63
2024/03/29 03:15:34;;;;;;;2.63;0.93;;;7.50;99.90;;;-141.84;56.81;18761.22;5111589;27;20641;-66
2024/03/29 03:18:01;;;;;;;2.63;0.83;;;7.60;99.90;;;-141.84;56.24;18783.56;5112123;27;20232;-67
2024/03/29 03:20:30;;;;;;;2.93;1.00;;;7.60;99.90;;;-141.84;56.43;18797.78;5108821;28;20223;-65
2024/03/29 03:22:57;;;;;;;1.43;0.90;;;7.60;99.90;;;-141.84;56.55;18807.94;5111648;27;20269;-65
2024/03/29 03:25:25;;;;;;;3.20;0.90;;;7.60;99.90;;;-141.84;56.21;18769.34;5111723;27;20219;-64
2024/03/29 03:27:52;;;;;;;2.20;0.80;;;7.60;99.90;;;-141.84;56.87;18761.22;5111731;28;20295;-65
2024/03/29 03:30:19;;;;;;;1.60;0.90;;;7.60;99.90;;;-141.84;56.72;18795.75;5111875;27;20222;-65
2024/03/29 03:32:47;;;;;;;1.23;0.90;;;7.60;99.90;;;-141.84;56.52;18809.97;5109227;28;20226;-65
2024/03/29 03:35:14;;;;;;;2.23;0.80;;;7.60;99.90;;;-141.84;57.15;18779.50;5109112;28;20226;-67
2024/03/29 03:37:41;;;;;;;2.20;1.03;;;7.50;99.90;;;-141.84;56.98;18771.38;5110450;28;20526;-66
2024/03/29 03:40:09;;;;;;;2.10;1.17;;;7.50;99.90;;;-141.84;56.30;18793.72;5112009;27;20586;-66
2024/03/29 03:42:36;;;;;;;1.90;0.97;;;7.60;99.90;;;-141.84;55.99;18775.44;5112329;28;20766;-64
2024/03/29 03:45:04;;;;;;;1.60;0.90;;;7.60;99.90;;;-141.84;56.79;18799.81;5112007;28;20221;-70
2024/03/29 03:47:30;;;;;;;2.13;1.00;;;7.50;99.90;;;-141.84;56.90;18773.41;5109273;28;20219;-66
2024/03/29 03:49:59;;;;;;;1.67;0.90;;;7.50;99.90;;;-141.84;56.19;18787.63;5109015;28;20215;-68
2024/03/29 03:52:25;;;;;;;2.13;0.90;;;7.60;99.90;;;-141.84;56.44;18781.53;5100322;28;20215;-64
2024/03/29 03:54:52;;;;;;;3.73;0.90;;;7.60;99.90;;;-141.84;56.44;18791.69;5112807;28;20223;-67
2024/03/29 03:57:19;;;;;;;1.20;0.90;;;7.60;99.90;;;-141.84;56.91;18769.34;5108798;28;20260;-66
2024/03/29 03:59:46;;;;;;;1.90;1.00;;;7.60;99.90;;;-141.84;56.44;18820.16;5109370;28;20726;-64
2024/03/29 04:02:12;;;;;;;1.00;0.87;;;7.50;99.90;;;-141.84;56.98;18781.53;5112255;28;20198;-65
2024/03/29 04:04:40;;;;;;;1.07;0.87;;;7.50;99.90;;;-141.84;57.62;18761.22;5112409;28;20210;-64
2024/03/29 04:07:07;;;;;;;1.10;0.87;;;7.40;99.90;;;-141.84;57.48;18769.34;5108710;28;20465;-65
2024/03/29 04:09:35;;;;;;;4.20;1.10;;;7.40;99.90;;;-141.84;56.85;18803.88;5111800;28;20222;-64
2024/03/29 04:12:01;;;;;;;1.40;0.87;;;7.40;99.90;;;-141.84;56.45;18785.59;5111658;28;20251;-65
2024/03/29 04:14:28;;;;;;;1.80;0.90;;;7.30;99.90;;;-141.84;57.69;18783.56;5107504;28;20640;-64
2024/03/29 04:16:55;;;;;;;1.77;0.97;;;7.40;99.90;;;-141.84;56.83;18775.44;5112609;28;20206;-64
2024/03/29 04:19:22;;;;;;;2.93;1.27;;;7.40;99.90;;;-141.84;57.08;18771.38;5111297;28;20218;-63
2024/03/29 04:21:48;;;;;;;3.03;1.00;;;7.40;99.90;;;-141.84;56.63;18799.81;5111778;27;20267;-64
2024/03/29 04:24:17;;;;;;;2.77;1.20;;;7.50;99.90;;;-141.84;57.08;18757.16;5116180;27;20218;-64
2024/03/29 04:26:44;;;;;;;2.87;1.10;;;7.40;99.90;;;-141.84;56.72;18775.44;5115108;27;20793;-65
2024/03/29 04:29:11;;;;;;;2.40;0.73;;;7.50;99.90;;;-141.84;56.42;18771.38;5114717;27;20222;-65
2024/03/29 04:31:38;;;;;;;2.30;0.93;;;7.50;99.90;;;-141.84;57.20;18749.03;5115829;27;20198;-64
2024/03/29 04:34:05;;;;;;;1.23;0.70;;;7.50;99.90;;;-141.84;57.01;18787.63;5115230;27;20219;-64
2024/03/29 04:36:31;;;;;;;3.07;1.13;;;7.50;99.90;;;-141.84;55.85;18793.72;5115037;27;20229;-64
2024/03/29 04:38:59;;;;;;;1.20;0.80;;;7.60;99.90;;;-141.84;55.96;18771.38;5115132;27;20211;-65
2024/03/29 04:41:27;;;;;;;2.37;1.30;;;7.60;99.90;;;-141.84;55.94;18775.44;5115344;27;20732;-67
2024/03/29 04:43:55;;;;;;;4.13;1.20;;;7.60;99.90;;;-141.84;55.37;18805.91;5115990;27;20575;-66
2024/03/29 04:46:22;;;;;;;2.10;1.07;;;7.70;99.90;;;-141.84;54.98;18807.94;5115170;27;20222;-67
2024/03/29 04:48:51;;;;;;;2.30;0.90;;;7.70;99.90;;;-141.84;55.26;18832.34;5111330;28;20710;-65
2024/03/29 04:51:18;;;;;;;1.70;0.80;;;7.80;99.90;;;-141.84;54.93;18838.44;5106991;27;20219;-65
2024/03/29 04:53:46;;;;;;;2.73;1.00;;;7.90;99.90;;;-141.84;54.19;18830.31;5117209;27;20296;-65
2024/03/29 04:56:13;;;;;;;2.03;1.10;;;8.00;99.90;;;-141.84;54.27;18844.53;5114435;27;20611;-65
2024/03/29 04:58:42;;;;;;;1.20;0.87;;;8.00;99.90;;;-141.84;53.38;18830.31;5115058;27;20195;-64
2024/03/29 05:01:09;;;;;;;1.77;0.90;;;8.10;99.90;;;-141.84;54.09;18818.09;5110751;28;20219;-65
2024/03/29 05:03:36;;;;;;;2.80;1.00;;;8.10;99.90;;;-141.84;54.73;18838.44;5110964;28;20265;-64
2024/03/29 05:06:04;;;;;;;2.27;0.90;;;8.00;99.90;;;-141.84;54.80;18803.88;5112008;27;20223;-65
2024/03/29 05:08:31;;;;;;;2.20;0.93;;;8.00;99.90;;;-141.84;54.88;18832.34;5114408;27;20275;-65
2024/03/29 05:10:58;;;;;;;2.60;1.23;;;8.10;99.90;;;-141.84;55.28;18807.94;5114911;27;20210;-65
2024/03/29 05:13:26;;;;;;;1.70;0.97;;;8.10;99.90;;;-141.84;53.34;18866.88;5113095;27;20231;-64
2024/03/29 05:15:54;;;;;;;3.27;1.00;;;8.10;99.90;;;-141.84;53.35;18850.63;5105280;28;20219;-64
2024/03/29 05:18:22;;;;;;;2.40;1.10;;;8.10;99.90;;;-141.84;53.39;18838.44;5110558;28;20215;-65
2024/03/29 05:20:51;;;;;;;1.67;1.00;;;8.20;99.90;;;-141.84;53.51;18881.09;5112035;27;20223;-65
2024/03/29 05:23:18;;;;;;;2.33;0.93;;;8.30;99.90;;;-141.84;53.36;18858.75;5114952;27;20213;-65
2024/03/29 05:25:48;;;;;;;2.43;0.97;;;8.30;99.90;;;-141.84;53.01;18872.97;5114400;27;20202;-64
2024/03/29 05:28:15;;;;;;;2.40;0.80;;;8.30;99.90;;;-141.84;53.31;18868.91;5113693;27;20215;-64
2024/03/29 05:30:44;;;;;;;2.17;1.20;;;8.30;99.90;;;-141.84;52.82;18879.06;5110082;28;20223;-65
2024/03/29 05:33:12;;;;;;;2.83;1.17;;;8.40;99.90;;;-141.84;51.93;18870.94;5109833;28;20223;-64
2024/03/29 05:35:40;;;;;;;0.87;0.80;;;8.50;99.90;;;-141.84;51.69;18903.44;5112512;27;20223;-65
2024/03/29 05:38:07;;;;;;;1.53;0.90;;;8.50;99.90;;;-141.84;52.47;18901.41;5113930;27;20198;-65
2024/03/29 05:40:34;;;;;;;1.43;0.90;;;8.50;99.90;;;-141.84;52.02;18858.75;5114023;27;20195;-65
2024/03/29 05:43:01;;;;;;;1.83;1.00;;;8.50;99.90;;;-141.84;52.06;18891.25;5113528;27;20777;-65
2024/03/29 05:45:31;;;;;;;2.07;0.90;;;8.50;99.90;;;-141.84;52.09;18866.88;5109999;28;20699;-65
2024/03/29 05:47:59;;;;;;;1.33;0.70;;;8.50;99.90;;;-141.84;52.29;18885.16;5110326;28;20219;-65
2024/03/29 05:50:28;;;;;;;1.43;0.90;;;8.50;99.90;;;-141.84;51.75;18889.22;5103102;27;20226;-65
2024/03/29 05:52:56;;;;;;;2.37;1.00;;;8.60;99.90;;;-141.84;51.36;18905.47;5107015;27;20230;-65
2024/03/29 05:55:23;;;;;;;1.10;0.90;;;8.70;99.90;;;-141.84;51.60;18889.22;5112529;27;20223;-64
2024/03/29 05:57:51;;;;;;;1.17;1.03;;;8.70;99.90;;;-141.84;50.33;18935.97;5113607;27;20240;-64
2024/03/29 06:00:18;;;;;;;1.77;1.07;;;8.90;99.90;;;-141.84;50.75;18950.19;5113374;27;20787;-65
2024/03/29 06:02:45;;;;;;;0.80;0.80;;;8.90;99.90;;;-141.84;50.78;18905.47;5113315;27;20256;-65
2024/03/29 06:05:13;;;;;;;1.63;1.10;;;8.90;99.90;;;-141.84;50.54;18931.91;5113670;27;20207;-64
2024/03/29 06:07:42;;;;;;;0.80;0.80;;;8.90;99.90;;;-141.84;50.19;18899.38;5110612;28;20203;-65
2024/03/29 06:10:10;;;;;;;1.67;1.00;;;8.90;99.90;;;-141.84;50.42;18921.75;5110274;27;20238;-66
2024/03/29 06:12:38;;;;;;;2.40;1.10;;;8.90;99.90;;;-141.84;50.62;18948.16;5113141;27;20226;-65
2024/03/29 06:17:52;;;;;;;2.63;1.20;;;9.00;99.90;;;-141.84;49.94;18907.50;5105698;27;20254;-64
2024/03/29 06:20:20;;;;;;;1.10;0.80;;;9.10;99.90;;;-141.84;49.96;18917.66;5113185;27;20198;-65
2024/03/29 06:22:48;;;;;;;1.33;0.80;;;9.20;99.90;;;-141.84;49.55;18966.44;5113410;27;20199;-64
2024/03/29 06:25:16;;;;;;;1.30;1.00;;;9.10;99.90;;;-141.84;49.88;18940.03;5112979;27;20218;-64
2024/03/29 06:27:47;;;;;;;1.30;0.80;;;9.20;99.90;;;-141.84;49.44;18948.16;5112596;27;20221;-65
2024/03/29 06:30:16;;;;;;;1.70;1.00;;;9.20;99.90;;;-141.84;48.93;18954.25;5112232;27;20233;-64
2024/03/29 06:32:45;;;;;;;1.63;1.00;;;9.30;99.90;;;-141.84;49.74;18976.59;5109321;28;20264;-65
2024/03/29 06:35:12;;;;;;;2.67;1.00;;;9.30;99.90;;;-141.84;49.48;18944.09;5112865;27;20548;-66
2024/03/29 06:37:40;;;;;;;2.40;0.90;;;9.40;99.90;;;-141.84;48.95;18996.91;5112999;27;20199;-65
2024/03/29 06:40:11;;;;;;;1.63;0.80;;;9.50;99.90;;;-141.84;48.70;18996.91;5108995;28;20592;-65
2024/03/29 06:42:39;;;;;;;1.23;1.00;;;9.60;99.90;;;-141.84;47.85;19013.16;5108803;28;20811;-65
2024/03/29 06:45:09;;;;;;;1.50;1.07;;;9.70;99.90;;;-141.84;47.93;19037.56;5111810;27;20218;-65
2024/03/29 06:47:36;;;;;;;2.00;1.10;;;9.80;99.90;;;-141.84;47.75;19027.41;5109157;28;20277;-65
2024/03/29 06:50:03;;;;;;;1.00;0.90;;;10.00;99.90;;;-141.84;47.65;19078.19;5109138;28;20284;-65
2024/03/29 06:52:31;;;;;;;1.00;0.70;;;10.00;99.90;;;-141.84;46.91;19021.31;5102738;27;20207;-65
2024/03/29 06:54:58;;;;;;;1.63;0.90;;;10.10;99.90;;;-141.84;46.93;19057.88;5112391;27;20215;-64
2024/03/29 06:57:31;;;;;;;2.70;0.90;;;10.20;99.90;;;-141.84;46.81;19102.56;5108505;27;20776;-64
2024/03/29 06:59:58;;;;;;;2.50;1.00;;;10.20;99.90;;;-141.84;47.00;19072.09;5104912;27;20218;-65
2024/03/29 07:02:25;;;;;;;1.40;0.80;;;10.20;99.90;;;-141.84;47.01;19068.03;5112238;27;20271;-65
2024/03/29 07:04:53;;;;;;;1.97;1.00;;;10.30;99.90;;;-141.84;46.93;19110.72;5112853;27;20629;-65
2024/03/29 07:07:20;;;;;;;1.13;0.90;;;10.40;99.90;;;-141.84;46.79;19057.88;5111805;27;20762;-64
2024/03/29 07:09:47;;;;;;;1.73;1.00;;;10.40;99.90;;;-141.84;46.41;19049.75;5108320;28;20719;-64
2024/03/29 07:12:15;;;;;;;0.97;0.80;;;10.40;99.90;;;-141.84;46.55;19098.50;5108848;27;20593;-65
2024/03/29 07:14:44;;;;;;;1.60;1.33;;;10.40;99.90;;;-141.84;46.73;19086.31;5101244;28;20222;-64
2024/03/29 07:17:11;;;;;;;1.00;0.83;;;10.40;99.90;;;-141.84;46.60;19053.81;5108412;28;20335;-65
2024/03/29 07:19:39;;;;;;;1.10;0.90;;;10.40;99.90;;;-141.84;46.41;19059.91;5110299;28;20248;-65
2024/03/29 07:22:06;;;;;;;1.27;0.90;;;10.40;99.90;;;-141.84;46.64;19066.00;5111489;27;20210;-65
2024/03/29 07:24:33;;;;;;;2.33;0.90;;;10.40;99.90;;;-141.84;45.93;19122.91;5112301;27;20222;-64
2024/03/29 07:27:00;;;;;;;1.67;1.00;;;10.50;99.90;;;-141.84;46.21;19082.25;5110773;27;20227;-65
2024/03/29 07:29:28;;;;;;;2.00;0.90;;;10.50;99.90;;;-141.84;46.14;19108.69;5111315;27;20230;-64
2024/03/29 07:31:56;;;;;;;1.33;0.80;;;10.50;99.90;;;-141.84;46.10;19084.28;5108805;28;20691;-64
2024/03/29 07:34:24;;;;;;;1.70;0.90;;;10.50;99.90;;;-141.84;46.49;19074.13;5109778;27;20227;-65
2024/03/29 07:36:51;;;;;;;1.10;0.80;;;10.50;99.90;;;-141.84;46.63;19080.22;5111794;27;20210;-65
2024/03/29 07:39:20;;;;;;;2.30;0.97;;;10.50;99.90;;;-141.84;45.79;19094.44;5111897;28;20218;-65
2024/03/29 07:41:47;;;;;;;1.53;1.20;;;10.60;99.90;;;-141.84;46.36;19110.72;5111643;27;20215;-66
2024/03/29 07:44:14;;;;;;;1.73;0.80;;;10.60;99.90;;;-141.84;46.01;19133.06;5111493;28;20214;-65
2024/03/29 07:46:42;;;;;;;2.00;1.37;;;10.70;99.90;;;-141.84;46.03;19129.00;5111882;28;20205;-65
2024/03/29 07:49:10;;;;;;;1.27;1.17;;;10.70;99.90;;;-141.84;45.82;19090.38;5111226;28;20222;-65
2024/03/29 07:51:37;;;;;;;1.57;0.90;;;10.70;99.90;;;-141.84;45.69;19143.22;5101730;28;20204;-64
2024/03/29 07:54:05;;;;;;;2.20;0.80;;;10.80;99.90;;;-141.84;45.67;19141.19;5112726;28;20593;-64
2024/03/29 07:56:32;;;;;;;1.03;0.93;;;10.80;99.90;;;-141.84;46.01;19120.88;5111476;28;20237;-65
2024/03/29 07:58:59;;;;;;;4.77;1.10;;;10.90;99.90;;;-141.84;45.77;19137.13;5113113;28;20744;-65
2024/03/29 08:01:27;;;;;;;1.57;0.80;;;11.00;99.90;;;-141.84;46.53;19118.84;5112749;28;20264;-66
2024/03/29 08:03:54;;;;;;;1.10;0.60;;;10.90;99.90;;;-141.84;46.54;19122.91;5115274;27;20226;-65
2024/03/29 08:06:24;;;;;;;2.90;1.23;;;10.90;99.90;;;-141.84;46.33;19155.41;5116182;27;20219;-64
2024/03/29 08:08:51;;;;;;;1.73;1.10;;;11.00;99.90;;;-141.84;47.55;19104.59;5115789;27;20865;-64
2024/03/29 08:11:19;;;;;;;2.30;0.97;;;10.90;99.90;;;-141.84;48.12;19074.13;5115447;27;20225;-64
2024/03/29 08:13:46;;;;;;;2.83;1.13;;;10.90;99.90;;;-141.84;49.97;19076.16;5112593;28;20591;-66
2024/03/29 08:16:13;;;;;;;1.90;1.00;;;10.70;99.90;;;-141.84;51.49;19000.97;5111965;28;20223;-64
2024/03/29 08:18:40;;;;;;;1.67;1.00;;;10.60;99.90;;;-141.84;52.12;18948.16;5112001;27;20224;-64
2024/03/29 08:21:11;;;;;;;2.80;1.50;;;10.40;99.90;;;-141.84;53.98;18958.31;5115529;27;20244;-64
2024/03/29 08:23:41;;;;;;;1.33;1.00;;;10.20;99.90;;;-141.84;54.62;18956.28;5120155;27;20221;-64
2024/03/29 08:26:08;;;;;;;1.67;1.27;;;10.10;99.90;;;-141.84;56.17;18962.38;5115472;27;20559;-65
2024/03/29 08:28:37;;;;;;;1.43;0.90;;;10.10;99.90;;;-141.84;58.14;18911.56;5115898;27;20202;-64
2024/03/29 08:31:08;;;;;;;1.93;1.10;;;10.00;99.90;;;-141.84;56.27;18956.28;5114743;27;20226;-67
2024/03/29 08:33:38;;;;;;;2.60;1.10;;;10.00;99.90;;;-141.84;55.35;18966.44;5111883;28;20212;-63
2024/03/29 08:36:06;;;;;;;1.43;1.10;;;10.00;99.90;;;-141.84;56.40;18952.22;5112097;28;20223;-64
2024/03/29 08:38:33;;;;;;;0.77;0.70;;;10.00;99.90;;;-141.84;56.94;18933.94;5112768;27;20734;-64
2024/03/29 08:41:02;;;;;;;1.80;1.00;;;10.00;99.90;;;-141.84;55.67;18980.66;5116007;27;20195;-65
2024/03/29 08:43:29;;;;;;;0.83;0.83;;;10.10;99.90;;;-141.84;56.33;18970.50;5115297;27;20214;-65
2024/03/29 08:45:57;;;;;;;2.33;1.10;;;10.20;99.90;;;-141.84;56.58;18990.81;5114375;27;20214;-65
2024/03/29 08:48:25;;;;;;;1.33;0.90;;;10.20;99.90;;;-141.84;55.36;19015.19;5111604;28;20223;-67
2024/03/29 08:50:52;;;;;;;1.53;1.10;;;10.30;99.90;;;-141.84;54.55;18988.78;5109550;28;20227;-65
2024/03/29 08:53:21;;;;;;;1.63;0.80;;;10.30;99.90;;;-141.84;53.84;19013.16;5113301;27;20658;-63
2024/03/29 08:55:49;;;;;;;2.17;0.93;;;10.40;99.90;;;-141.84;53.21;19005.03;5115494;27;20198;-65
2024/03/29 08:58:19;;;;;;;1.20;0.80;;;10.40;99.90;;;-141.84;52.79;19017.25;5114502;27;20229;-65
2024/03/29 09:00:55;;;;;;;1.33;1.00;;;10.50;99.90;;;-141.84;51.13;19049.75;5113879;27;20786;-65
2024/03/29 09:03:23;;;;;;;1.83;1.40;;;10.60;99.90;;;-141.84;51.59;19019.28;5111040;28;20215;-65
2024/03/29 09:05:52;;;;;;;1.20;0.90;;;10.70;99.90;;;-141.84;51.71;19043.66;5113784;27;20223;-65
2024/03/29 09:08:20;;;;;;;2.00;0.97;;;10.80;99.90;;;-141.84;51.14;19061.94;5111384;27;20206;-65
2024/03/29 09:10:47;;;;;;;1.70;1.10;;;10.80;99.90;;;-141.84;49.88;19072.09;5114870;27;20214;-65
2024/03/29 09:13:14;;;;;;;1.77;1.00;;;10.90;99.90;;;-141.84;50.67;19041.63;5113915;27;20291;-64
2024/03/29 09:15:43;;;;;;;1.43;1.00;;;11.00;99.90;;;-141.84;50.39;19063.97;5109215;27;20227;-64
2024/03/29 09:18:17;;;;;;;1.87;1.30;;;11.00;99.90;;;-141.84;50.12;19120.88;5106746;27;20222;-64
2024/03/29 09:20:45;;;;;;;1.97;1.00;;;11.10;99.90;;;-141.84;50.14;19074.13;5108067;27;20240;-66
2024/03/29 09:23:16;;;;;;;1.27;1.00;;;11.10;99.90;;;-141.84;49.77;19110.72;5112224;27;20199;-66
2024/03/29 09:25:44;;;;;;;1.10;0.90;;;11.10;99.90;;;-141.84;49.25;19092.41;5108301;27;20194;-65
2024/03/29 09:28:11;;;;;;;1.23;1.10;;;11.10;99.90;;;-141.84;47.78;19157.44;5108091;27;20236;-64
2024/03/29 09:30:38;;;;;;;1.37;0.90;;;11.20;99.90;;;-141.84;47.92;19118.84;5110391;27;20214;-64
2024/03/29 09:33:09;;;;;;;3.03;0.90;;;11.30;99.90;;;-141.84;48.71;19126.97;5107675;27;20225;-65
2024/03/29 09:35:37;;;;;;;2.40;0.90;;;11.40;99.90;;;-141.84;48.12;19147.28;5105150;27;20210;-66
2024/03/29 09:38:05;;;;;;;1.60;0.70;;;11.40;99.90;;;-141.84;47.45;19131.03;5108311;27;20212;-66
2024/03/29 09:40:34;;;;;;;2.30;0.80;;;11.30;99.90;;;-141.84;47.65;19143.22;5114505;27;20533;-64
2024/03/29 09:43:02;;;;;;;1.23;1.07;;;11.30;99.90;;;-141.84;47.57;19155.41;5104424;27;20219;-65
2024/03/29 09:45:34;;;;;;;1.03;0.93;;;11.40;99.90;;;-141.84;47.83;19139.16;5117223;27;20219;-67
2024/03/29 09:48:04;;;;;;;2.08;1.13;;;11.40;99.90;;;-141.84;47.76;19151.34;5113065;27;20233;-67
2024/03/29 09:50:35;;;;;;;1.10;1.00;;;11.40;99.90;;;-141.84;47.10;19141.19;5112801;27;20227;-69
2024/03/29 09:53:03;;;;;;;1.37;1.00;;;11.40;99.90;;;-141.84;47.65;19177.75;5111560;27;20206;-70
2024/03/29 09:55:31;;;;;;;1.53;0.87;;;11.50;99.90;;;-141.84;47.91;19179.78;5112729;27;20210;-68
2024/03/29 09:57:59;;;;;;;2.13;1.17;;;11.50;99.90;;;-141.84;48.29;19143.22;5113883;27;20214;-69
2024/03/29 10:00:29;;;;;;;1.50;0.90;;;11.50;99.90;;;-141.84;48.33;19159.47;5109107;27;20211;-70
2024/03/29 10:02:57;;;;;;;1.33;1.10;;;11.50;99.90;;;-141.84;48.26;19155.41;5110414;28;20714;-65
2024/03/29 10:05:27;;;;;;;2.30;1.23;;;11.50;99.90;;;-141.84;48.22;19135.09;5110271;28;20229;-65
2024/03/29 10:07:56;;;;;;;3.00;1.30;;;11.60;99.90;;;-141.84;48.52;19149.31;5111846;27;20268;-65
2024/03/29 10:10:24;;;;;;;2.47;1.50;;;11.60;99.90;;;-141.84;48.88;19151.34;5113764;27;20632;-65
2024/03/29 10:12:51;;;;;;;1.67;1.53;;;11.60;99.90;;;-141.84;48.60;19139.16;5113279;27;20246;-68
2024/03/29 10:15:21;;;;;;;1.67;1.30;;;11.70;99.90;;;-141.84;48.43;19163.53;5112597;27;20215;-68
2024/03/29 10:17:49;;;;;;;1.70;1.47;;;11.70;99.90;;;-141.84;48.40;19185.88;5113742;27;20214;-68
2024/03/29 10:20:18;;;;;;;1.60;1.40;;;11.80;99.90;;;-141.84;48.13;19185.88;5109599;28;20195;-68
2024/03/29 10:22:47;;;;;;;1.88;1.38;;;11.90;99.90;;;-141.84;48.36;19187.91;5112938;27;20203;-67
2024/03/29 10:25:16;;;;;;;1.50;1.27;;;12.10;99.90;;;-141.84;47.69;19185.88;5113436;27;20639;-67
2024/03/29 10:27:44;;;;;;;2.00;1.53;;;12.10;99.90;;;-141.84;47.05;19218.41;5113515;27;20214;-68
2024/03/29 10:30:17;;;;;;;1.80;1.35;;;12.20;99.90;;;-141.84;47.02;19210.28;5104226;27;20767;-67
2024/03/29 10:32:44;;;;;;;1.70;1.55;;;12.20;99.90;;;-141.84;47.24;19236.69;5113758;27;20230;-65
2024/03/29 10:35:12;;;;;;;2.25;1.40;;;12.20;99.90;;;-141.84;47.45;19216.38;5113168;27;20206;-67
2024/03/29 10:37:40;;;;;;;1.48;1.25;;;12.30;99.90;;;-141.84;47.47;19187.91;5110606;28;20264;-66
2024/03/29 10:40:10;;;;;;;2.58;1.48;;;12.30;99.90;;;-141.84;47.81;19230.59;5109696;28;20226;-67
2024/03/29 10:42:40;;;;;;;2.15;1.40;;;12.30;99.90;;;-141.84;47.37;19261.06;5111020;27;20219;-68
2024/03/29 10:45:09;;;;;;;1.73;1.63;;;12.40;99.90;;;-141.84;46.90;19228.56;5112893;27;20644;-65
2024/03/29 10:47:38;;;;;;;2.10;1.42;;;12.50;99.90;;;-141.84;46.92;19265.13;5113254;27;20226;-73
2024/03/29 10:50:06;;;;;;;2.05;1.55;;;12.50;99.90;;;-141.84;47.41;19240.75;5108352;27;20211;-73
2024/03/29 10:52:36;;;;;;;1.67;1.20;;;12.40;99.90;;;-141.84;47.54;19236.69;5111891;27;20208;-72
2024/03/29 10:55:04;;;;;;;1.40;1.30;;;12.40;99.90;;;-141.84;47.21;19242.78;5112035;27;20284;-71
2024/03/29 10:57:36;;;;;;;2.53;1.52;;;12.40;99.90;;;-141.84;46.66;19248.88;5112441;27;20290;-68
2024/03/29 11:00:14;;;;;;;2.13;1.70;;;12.60;99.90;;;-141.84;45.94;19269.22;5109382;28;20233;-66
2024/03/29 11:02:51;;;;;;;2.30;1.73;;;12.70;99.90;;;-141.84;45.57;19313.91;5111446;27;20256;-67
2024/03/29 11:05:20;;;;;;;1.98;1.40;;;12.90;99.90;;;-141.84;45.48;19307.81;5112845;27;20214;-67
2024/03/29 11:07:50;;;;;;;1.67;1.40;;;13.10;99.90;;;-141.84;45.19;19401.28;5112785;27;20198;-66
2024/03/29 11:10:26;;;;;;;3.22;1.40;;;13.30;99.90;;;-141.84;44.71;19411.44;5109117;28;20215;-67
2024/03/29 11:13:03;;;;;;;2.05;1.48;;;13.60;99.90;;;-141.84;44.39;19409.41;5108778;28;20717;-70
2024/03/29 11:15:38;;;;;;;2.47;1.35;;;13.70;99.90;;;-141.84;43.85;19417.56;5104934;27;20280;-70
2024/03/29 11:18:08;;;;;;;2.30;1.50;;;13.80;99.90;;;-141.84;42.83;19452.09;5112533;27;20213;-71
2024/03/29 11:20:39;;;;;;;1.77;1.30;;;13.90;99.90;;;-141.84;42.56;19486.66;5112450;27;20267;-71
2024/03/29 11:23:12;;;;;;;2.42;1.13;;;14.00;99.90;;;-141.84;42.33;19466.31;5113115;27;20202;-72
2024/03/29 11:25:42;;;;;;;1.80;1.10;;;14.10;99.90;;;-141.84;42.37;19474.44;5112298;27;20200;-72
2024/03/29 11:28:15;;;;;;;2.22;1.35;;;14.20;99.90;;;-141.84;42.17;19521.19;5112666;27;20211;-71
2024/03/29 11:30:49;;;;;;;1.30;1.20;;;14.20;99.90;;;-141.84;42.08;19492.75;5112119;27;20686;-73
2024/03/29 11:33:34;;;;;;;1.65;1.10;;;14.30;99.90;;;-141.84;41.49;19525.25;5111594;27;20281;-65
2024/03/29 11:36:11;;;;;;;1.30;1.10;;;14.40;99.90;;;-141.84;40.86;19580.13;5108638;27;20206;-67
2024/03/29 11:38:40;;;;;;;2.42;1.13;;;14.50;99.90;;;-141.84;40.45;19590.28;5112197;27;20218;-66
2024/03/29 11:41:11;;;;;;;1.15;1.00;;;14.60;99.90;;;-141.84;40.26;19616.72;5112216;27;20566;-66
2024/03/29 11:43:40;;;;;;;2.22;1.20;;;14.70;99.90;;;-141.84;40.76;19582.16;5111577;28;20198;-66
2024/03/29 11:46:10;;;;;;;3.15;1.30;;;14.70;99.90;;;-141.84;41.30;19582.16;5108240;28;20207;-66
2024/03/29 11:48:39;;;;;;;2.70;1.42;;;14.70;99.90;;;-141.84;41.10;19588.25;5111658;28;20214;-67
2024/03/29 11:51:11;;;;;;;1.42;1.10;;;14.80;99.90;;;-141.84;40.67;19610.59;5110645;28;20276;-65
2024/03/29 11:53:38;;;;;;;2.13;1.40;;;14.80;99.90;;;-141.84;40.90;19606.53;5110737;28;20268;-65
2024/03/29 11:56:06;;;;;;;1.80;1.35;;;14.90;99.90;;;-141.84;40.34;19632.97;5114103;28;20206;-65
2024/03/29 11:58:35;;;;;;;3.67;1.30;;;14.90;99.90;;;-141.84;40.83;19608.56;5104674;28;20206;-64
2024/03/29 12:01:03;;;;;;;2.00;1.30;;;14.90;99.90;;;-141.84;40.13;19667.50;5111933;28;20714;-65
2024/03/29 12:03:34;;;;;;;1.75;1.33;;;15.00;99.90;;;-141.84;40.04;19655.31;5108743;28;20763;-67
2024/03/29 12:06:02;;;;;;;1.92;1.00;;;15.00;99.90;;;-141.84;40.35;19632.97;5111989;28;20590;-68